createdAt,value
2022-11-27T00:01:27.165Z,10.63
2022-11-27T00:03:55.852Z,11.00
2022-11-27T00:06:26.086Z,9.43
2022-11-27T00:08:54.948Z,9.00
2022-11-27T00:11:24.866Z,10.70
2022-11-27T00:13:53.213Z,10.13
2022-11-27T00:16:24.388Z,10.47
2022-11-27T00:18:52.907Z,10.30
2022-11-27T00:21:25.577Z,10.90
2022-11-27T00:23:55.352Z,9.90
2022-11-27T00:26:24.586Z,9.87
2022-11-27T00:28:53.335Z,10.40
2022-11-27T00:31:27.245Z,11.50
2022-11-27T00:33:56.521Z,10.83
2022-11-27T00:36:24.850Z,10.77
2022-11-27T00:38:53.335Z,10.37
2022-11-27T00:41:23.475Z,10.87
2022-11-27T00:43:53.429Z,11.07
2022-11-27T00:46:28.411Z,10.87
2022-11-27T00:48:57.635Z,10.77
2022-11-27T00:51:27.650Z,11.60
2022-11-27T00:53:56.327Z,10.23
2022-11-27T00:56:27.393Z,10.40
2022-11-27T00:58:56.665Z,10.17
2022-11-27T01:01:30.460Z,10.60
2022-11-27T01:04:00.581Z,10.33
2022-11-27T01:06:29.869Z,9.53
2022-11-27T01:08:58.865Z,10.93
2022-11-27T01:11:29.937Z,10.13
2022-11-27T01:13:59.958Z,10.40
2022-11-27T01:16:31.844Z,9.27
2022-11-27T01:19:03.453Z,8.90
2022-11-27T01:21:34.982Z,8.93
2022-11-27T01:24:04.792Z,8.03
2022-11-27T01:26:33.497Z,7.10
2022-11-27T01:29:02.193Z,7.50
2022-11-27T01:31:33.625Z,8.83
2022-11-27T01:34:03.955Z,8.03
2022-11-27T01:36:32.742Z,7.57
2022-11-27T01:39:02.399Z,7.77
2022-11-27T01:41:32.665Z,8.33
2022-11-27T01:44:02.379Z,9.03
2022-11-27T01:46:36.507Z,8.20
2022-11-27T01:49:23.412Z,9.97
2022-11-27T01:51:55.898Z,8.77
2022-11-27T01:54:28.263Z,9.17
2022-11-27T01:57:00.640Z,7.90
2022-11-27T01:59:29.465Z,9.00
2022-11-27T02:01:59.305Z,9.10
2022-11-27T02:04:27.678Z,9.23
2022-11-27T02:06:58.642Z,10.10
2022-11-27T02:09:27.611Z,9.10
2022-11-27T02:12:07.316Z,9.23
2022-11-27T02:14:44.761Z,9.93
2022-11-27T02:17:21.606Z,9.00
2022-11-27T02:20:14.872Z,10.10
2022-11-27T02:22:59.253Z,9.63
2022-11-27T02:25:38.879Z,8.83
2022-11-27T02:28:21.336Z,9.87
2022-11-27T02:30:57.981Z,9.50
2022-11-27T02:33:27.977Z,9.10
2022-11-27T02:36:00.758Z,9.47
2022-11-27T02:38:34.027Z,8.80
2022-11-27T02:41:09.497Z,9.90
2022-11-27T02:43:42.007Z,9.30
2022-11-27T02:46:13.062Z,9.43
2022-11-27T02:48:46.444Z,9.03
2022-11-27T02:51:16.110Z,8.60
2022-11-27T02:53:48.589Z,8.40
2022-11-27T02:56:19.744Z,7.07
2022-11-27T02:58:49.583Z,8.20
2022-11-27T03:01:21.324Z,7.83
2022-11-27T03:03:55.312Z,7.57
2022-11-27T03:06:28.367Z,6.90
2022-11-27T03:09:01.459Z,7.40
2022-11-27T03:11:31.237Z,6.80
2022-11-27T03:14:03.076Z,6.93
2022-11-27T03:16:39.448Z,5.87
2022-11-27T03:19:16.248Z,7.17
2022-11-27T03:21:46.459Z,6.80
2022-11-27T03:24:14.804Z,6.50
2022-11-27T03:26:44.139Z,6.07
2022-11-27T03:29:15.415Z,6.20
2022-11-27T03:31:45.931Z,6.10
2022-11-27T03:34:14.263Z,7.40
2022-11-27T03:36:42.365Z,6.30
2022-11-27T03:39:11.249Z,6.93
2022-11-27T03:41:46.137Z,6.80
2022-11-27T03:44:29.825Z,6.80
2022-11-27T03:47:08.036Z,7.17
2022-11-27T03:49:46.814Z,7.57
2022-11-27T03:52:24.763Z,7.60
2022-11-27T03:55:00.397Z,6.87
2022-11-27T03:57:34.562Z,6.63
2022-11-27T04:00:06.179Z,6.50
2022-11-27T04:02:44.153Z,7.07
2022-11-27T04:05:13.540Z,5.53
2022-11-27T04:07:41.983Z,5.97
2022-11-27T04:10:12.184Z,6.17
2022-11-27T04:12:40.812Z,5.60
2022-11-27T04:15:10.101Z,5.70
2022-11-27T04:17:38.557Z,5.37
2022-11-27T04:20:09.901Z,6.03
2022-11-27T04:22:38.015Z,6.27
2022-11-27T04:25:07.531Z,5.33
2022-11-27T04:27:36.047Z,4.90
2022-11-27T04:30:04.732Z,5.60
2022-11-27T04:32:33.532Z,5.23
2022-11-27T04:35:02.218Z,4.73
2022-11-27T04:37:31.690Z,4.97
2022-11-27T04:39:59.817Z,4.30
2022-11-27T04:42:28.598Z,4.53
2022-11-27T04:44:56.752Z,4.30
2022-11-27T04:47:24.921Z,5.03
2022-11-27T04:49:53.636Z,4.23
2022-11-27T04:52:21.745Z,4.80
2022-11-27T04:54:55.393Z,4.50
2022-11-27T04:57:27.060Z,4.43
2022-11-27T04:59:55.503Z,4.30
2022-11-27T05:02:23.759Z,4.30
2022-11-27T05:04:52.599Z,4.13
2022-11-27T05:07:20.815Z,4.97
2022-11-27T05:09:50.319Z,3.97
2022-11-27T05:12:19.211Z,4.63
2022-11-27T05:14:47.337Z,4.60
2022-11-27T05:17:15.448Z,4.67
2022-11-27T05:19:44.119Z,5.13
2022-11-27T05:22:12.215Z,4.00
2022-11-27T05:24:40.698Z,3.90
2022-11-27T05:27:11.153Z,4.60
2022-11-27T05:29:40.280Z,5.10
2022-11-27T05:32:08.377Z,5.37
2022-11-27T05:34:38.757Z,4.90
2022-11-27T05:37:06.987Z,4.83
2022-11-27T05:39:35.560Z,5.20
2022-11-27T05:42:04.276Z,4.70
2022-11-27T05:44:33.859Z,4.47
2022-11-27T05:47:02.064Z,4.53
2022-11-27T05:49:30.561Z,4.83
2022-11-27T05:51:59.569Z,4.73
2022-11-27T05:54:27.897Z,3.80
2022-11-27T05:56:58.015Z,4.57
2022-11-27T05:59:26.237Z,4.57
2022-11-27T06:01:55.783Z,5.33
2022-11-27T06:04:24.629Z,5.20
2022-11-27T06:06:52.724Z,4.63
2022-11-27T06:09:20.790Z,5.10
2022-11-27T06:11:49.509Z,4.90
2022-11-27T06:14:17.648Z,4.60
2022-11-27T06:16:45.782Z,5.00
2022-11-27T06:19:15.837Z,5.00
2022-11-27T06:21:44.552Z,5.27
2022-11-27T06:24:12.645Z,4.77
2022-11-27T06:26:41.038Z,5.17
2022-11-27T06:29:10.328Z,5.43
2022-11-27T06:31:38.536Z,4.37
2022-11-27T06:34:07.591Z,4.37
2022-11-27T06:36:40.545Z,4.60
2022-11-27T06:39:11.298Z,4.43
2022-11-27T06:41:39.476Z,4.57
2022-11-27T06:44:07.589Z,4.57
2022-11-27T06:46:36.165Z,4.37
2022-11-27T06:49:05.562Z,3.97
2022-11-27T06:51:34.387Z,3.53
2022-11-27T06:54:05.513Z,4.03
2022-11-27T06:56:33.671Z,4.33
2022-11-27T06:59:03.301Z,4.23
2022-11-27T07:01:32.814Z,4.03
2022-11-27T07:04:01.092Z,4.20
2022-11-27T07:06:30.277Z,4.20
2022-11-27T07:08:58.824Z,4.07
2022-11-27T07:11:31.924Z,4.33
2022-11-27T07:14:01.745Z,4.30
2022-11-27T07:16:32.069Z,4.37
2022-11-27T07:19:03.921Z,4.27
2022-11-27T07:21:32.413Z,5.37
2022-11-27T07:24:01.825Z,5.43
2022-11-27T07:26:32.461Z,4.87
2022-11-27T07:29:00.560Z,4.93
2022-11-27T07:31:30.915Z,4.57
2022-11-27T07:33:59.408Z,5.43
2022-11-27T07:36:29.620Z,5.13
2022-11-27T07:38:59.065Z,4.83
2022-11-27T07:41:33.524Z,5.33
2022-11-27T07:44:04.217Z,5.27
2022-11-27T07:46:32.947Z,5.70
2022-11-27T07:49:01.971Z,5.37
2022-11-27T07:51:30.589Z,6.60
2022-11-27T07:54:00.272Z,6.80
2022-11-27T07:56:28.688Z,6.27
2022-11-27T07:58:58.113Z,7.07
2022-11-27T08:01:27.770Z,6.50
2022-11-27T08:03:56.380Z,6.63
2022-11-27T08:06:26.484Z,7.90
2022-11-27T08:08:56.635Z,8.27
2022-11-27T08:11:27.192Z,8.03
2022-11-27T08:13:58.402Z,7.53
2022-11-27T08:16:29.406Z,7.60
2022-11-27T08:18:57.615Z,7.33
2022-11-27T08:21:25.996Z,8.33
2022-11-27T08:23:55.049Z,8.30
2022-11-27T08:26:23.144Z,7.80
2022-11-27T08:28:53.867Z,7.33
2022-11-27T08:31:24.892Z,8.70
2022-11-27T08:33:54.536Z,9.30
2022-11-27T08:36:23.582Z,8.80
2022-11-27T08:38:51.824Z,8.50
2022-11-27T08:41:20.184Z,9.63
2022-11-27T08:43:48.292Z,9.20
2022-11-27T08:46:18.042Z,9.33
2022-11-27T08:48:46.265Z,7.53
2022-11-27T08:51:16.957Z,8.43
2022-11-27T08:53:46.091Z,9.50
2022-11-27T08:56:18.601Z,7.40
2022-11-27T08:58:47.967Z,7.43
2022-11-27T09:01:19.007Z,7.80
2022-11-27T09:03:47.361Z,7.40
2022-11-27T09:06:19.108Z,7.47
2022-11-27T09:08:47.690Z,7.30
2022-11-27T09:11:17.588Z,7.07
2022-11-27T09:13:46.384Z,7.33
2022-11-27T09:16:16.613Z,7.37
2022-11-27T09:18:46.098Z,8.07
2022-11-27T09:21:17.648Z,7.87
2022-11-27T09:23:46.085Z,7.27
2022-11-27T09:26:18.826Z,8.47
2022-11-27T09:28:47.207Z,7.67
2022-11-27T09:31:16.680Z,6.33
2022-11-27T09:33:47.036Z,6.73
2022-11-27T09:36:17.782Z,6.60
2022-11-27T09:38:46.455Z,8.57
2022-11-27T09:41:44.597Z,7.50
2022-11-27T09:44:23.203Z,7.10
2022-11-27T09:46:52.899Z,7.97
2022-11-27T09:49:26.648Z,8.40
2022-11-27T09:52:02.251Z,10.07
2022-11-27T09:54:36.246Z,8.57
2022-11-27T09:57:05.229Z,8.70
2022-11-27T09:59:42.716Z,8.37
2022-11-27T10:02:18.199Z,8.43
2022-11-27T10:05:12.207Z,8.30
2022-11-27T10:07:45.429Z,8.40
2022-11-27T10:10:29.529Z,8.53
2022-11-27T10:13:06.624Z,8.00
2022-11-27T10:15:43.738Z,7.97
2022-11-27T10:18:17.499Z,7.43
2022-11-27T10:20:50.738Z,9.87
2022-11-27T10:23:42.614Z,11.67
2022-11-27T10:26:18.645Z,12.37
2022-11-27T10:28:56.582Z,11.43
2022-11-27T10:31:36.981Z,11.43
2022-11-27T10:34:08.723Z,11.63
2022-11-27T10:36:40.905Z,12.00
2022-11-27T10:39:16.937Z,11.20
2022-11-27T10:41:51.524Z,10.27
2022-11-27T10:44:28.750Z,10.07
2022-11-27T10:47:02.861Z,11.37
2022-11-27T10:49:31.352Z,10.37
2022-11-27T10:52:00.436Z,11.17
2022-11-27T10:54:35.587Z,12.07
2022-11-27T10:57:18.402Z,10.37
2022-11-27T10:59:51.745Z,10.10
2022-11-27T11:02:30.727Z,11.27
2022-11-27T11:05:30.816Z,11.17
2022-11-27T11:08:01.356Z,11.10
2022-11-27T11:10:36.557Z,12.57
2022-11-27T11:13:20.369Z,11.10
2022-11-27T11:15:55.002Z,10.90
2022-11-27T11:18:25.728Z,10.87
2022-11-27T11:20:56.800Z,11.37
2022-11-27T11:23:31.965Z,10.77
2022-11-27T11:26:06.119Z,11.33
2022-11-27T11:28:39.522Z,11.20
2022-11-27T11:31:19.346Z,12.07
2022-11-27T11:33:54.188Z,12.70
2022-11-27T11:36:23.256Z,12.30
2022-11-27T11:38:52.678Z,13.23
2022-11-27T11:41:24.528Z,11.73
2022-11-27T11:44:01.276Z,11.63
2022-11-27T11:46:33.107Z,13.60
2022-11-27T11:49:04.131Z,14.43
2022-11-27T11:51:59.953Z,14.63
2022-11-27T11:54:50.114Z,14.90
2022-11-27T11:57:56.605Z,14.67
2022-11-27T12:00:37.639Z,15.00
2022-11-27T12:03:43.947Z,13.87
2022-11-27T12:06:30.075Z,13.87
2022-11-27T12:09:12.445Z,14.70
2022-11-27T12:11:49.303Z,13.90
2022-11-27T12:14:29.384Z,14.73
2022-11-27T12:17:14.223Z,13.27
2022-11-27T12:19:54.269Z,14.10
2022-11-27T12:22:41.160Z,12.47
2022-11-27T12:25:26.120Z,13.67
2022-11-27T12:28:07.383Z,14.33
2022-11-27T12:30:45.992Z,12.10
2022-11-27T12:33:27.024Z,13.37
2022-11-27T12:36:08.417Z,13.77
2022-11-27T12:38:59.338Z,14.97
2022-11-27T12:41:54.949Z,15.13
2022-11-27T12:44:32.687Z,14.50
2022-11-27T12:47:08.560Z,16.10
2022-11-27T12:49:42.959Z,13.10
2022-11-27T12:52:16.327Z,13.40
2022-11-27T12:54:51.086Z,14.47
2022-11-27T12:57:24.594Z,14.97
2022-11-27T12:59:58.490Z,14.93
2022-11-27T13:02:34.084Z,13.77
2022-11-27T13:05:05.457Z,13.63
2022-11-27T13:07:41.721Z,15.50
2022-11-27T13:10:23.236Z,13.77
2022-11-27T13:12:57.708Z,12.90
2022-11-27T13:15:31.624Z,13.27
2022-11-27T13:18:07.260Z,11.53
2022-11-27T13:20:40.704Z,11.90
2022-11-27T13:23:09.554Z,12.93
2022-11-27T13:25:43.732Z,11.73
2022-11-27T13:28:21.866Z,12.53
2022-11-27T13:30:51.370Z,10.93
2022-11-27T13:33:35.184Z,10.10
2022-11-27T13:36:07.096Z,11.30
2022-11-27T13:38:38.877Z,11.97
2022-11-27T13:41:08.267Z,11.50
2022-11-27T13:43:44.482Z,11.13
2022-11-27T13:46:20.589Z,10.90
2022-11-27T13:48:53.887Z,11.87
2022-11-27T13:51:28.253Z,12.20
2022-11-27T13:54:09.033Z,12.30
2022-11-27T13:56:37.816Z,11.03
2022-11-27T13:59:17.082Z,11.23
2022-11-27T14:01:59.435Z,11.30
2022-11-27T14:04:31.312Z,11.03
2022-11-27T14:07:03.602Z,10.03
2022-11-27T14:09:41.908Z,11.07
2022-11-27T14:12:20.475Z,10.33
2022-11-27T14:15:02.551Z,9.47
2022-11-27T14:17:36.979Z,10.80
2022-11-27T14:20:21.791Z,9.90
2022-11-27T14:23:11.079Z,11.30
2022-11-27T14:25:40.290Z,11.93
2022-11-27T14:28:15.564Z,9.87
2022-11-27T14:30:48.422Z,8.93
2022-11-27T14:33:21.076Z,8.73
2022-11-27T14:35:52.052Z,10.03
2022-11-27T14:38:20.804Z,9.30
2022-11-27T14:40:49.507Z,9.33
2022-11-27T14:43:19.422Z,8.87
2022-11-27T14:45:50.721Z,9.03
2022-11-27T14:48:24.474Z,8.57
2022-11-27T14:50:56.714Z,10.00
2022-11-27T14:53:27.481Z,10.37
2022-11-27T14:55:57.967Z,11.20
2022-11-27T14:58:28.977Z,10.93
2022-11-27T15:01:00.821Z,10.97
2022-11-27T15:03:30.385Z,9.70
2022-11-27T15:06:02.165Z,9.93
2022-11-27T15:08:33.569Z,11.27
2022-11-27T15:11:03.096Z,11.70
2022-11-27T15:13:33.410Z,11.17
2022-11-27T15:16:07.938Z,11.60
2022-11-27T15:18:38.762Z,12.47
2022-11-27T15:21:16.674Z,11.87
2022-11-27T15:23:47.579Z,13.17
2022-11-27T15:26:28.929Z,11.03
2022-11-27T15:28:58.507Z,13.33
2022-11-27T15:31:30.462Z,13.57
2022-11-27T15:34:04.942Z,13.30
2022-11-27T15:36:40.052Z,14.97
2022-11-27T15:39:36.234Z,14.00
2022-11-27T15:42:09.867Z,13.50
2022-11-27T15:44:39.179Z,15.20
2022-11-27T15:47:22.740Z,15.77
2022-11-27T15:49:50.880Z,14.13
2022-11-27T15:52:20.911Z,13.43
2022-11-27T15:54:49.168Z,13.90
2022-11-27T15:57:17.417Z,12.83
2022-11-27T15:59:45.817Z,12.73
2022-11-27T16:02:18.103Z,13.50
2022-11-27T16:04:46.695Z,15.40
2022-11-27T16:07:15.417Z,13.63
2022-11-27T16:09:44.867Z,13.73
2022-11-27T16:12:13.695Z,13.20
2022-11-27T16:14:42.205Z,13.93
2022-11-27T16:17:11.826Z,16.30
2022-11-27T16:19:40.399Z,14.40
2022-11-27T16:22:09.227Z,14.40
2022-11-27T16:24:38.035Z,15.23
2022-11-27T16:27:08.064Z,14.73
2022-11-27T16:29:36.493Z,13.77
2022-11-27T16:32:04.850Z,14.60
2022-11-27T16:34:33.143Z,14.50
2022-11-27T16:37:01.315Z,15.93
2022-11-27T16:39:29.538Z,14.33
2022-11-27T16:41:57.757Z,14.60
2022-11-27T16:44:27.645Z,14.53
2022-11-27T16:46:55.764Z,14.40
2022-11-27T16:49:24.293Z,17.90
2022-11-27T16:51:52.818Z,16.17
2022-11-27T16:54:20.912Z,15.83
2022-11-27T16:56:49.444Z,16.07
2022-11-27T16:59:17.657Z,16.57
2022-11-27T17:01:47.351Z,16.20
2022-11-27T17:04:19.183Z,17.10
2022-11-27T17:06:48.539Z,19.13
2022-11-27T17:09:17.350Z,19.40
2022-11-27T17:11:48.917Z,18.93
2022-11-27T17:14:19.607Z,18.17
2022-11-27T17:16:49.757Z,17.03
2022-11-27T17:19:18.641Z,18.70
2022-11-27T17:21:47.082Z,16.03
2022-11-27T17:24:16.993Z,17.63
2022-11-27T17:26:47.191Z,17.00
2022-11-27T17:29:18.196Z,16.87
2022-11-27T17:31:46.469Z,15.13
2022-11-27T17:34:18.083Z,15.83
2022-11-27T17:36:47.928Z,16.67
2022-11-27T17:39:16.379Z,17.03
2022-11-27T17:41:45.267Z,17.17
2022-11-27T17:44:14.363Z,18.17
2022-11-27T17:46:45.025Z,19.87
2022-11-27T17:49:13.188Z,18.80
2022-11-27T17:51:44.277Z,17.97
2022-11-27T17:54:12.656Z,17.63
2022-11-27T17:56:40.764Z,17.00
2022-11-27T17:59:09.195Z,16.77
2022-11-27T18:01:37.358Z,16.37
2022-11-27T18:04:06.016Z,21.87
2022-11-27T18:06:36.071Z,21.33
2022-11-27T18:09:06.780Z,19.43
2022-11-27T18:11:35.436Z,17.20
2022-11-27T18:14:03.899Z,15.97
2022-11-27T18:16:34.148Z,18.60
2022-11-27T18:19:05.325Z,16.10
2022-11-27T18:21:33.843Z,15.37
2022-11-27T18:27:07.619Z,14.80
2022-11-27T18:29:37.248Z,15.33
2022-11-27T18:32:06.296Z,14.27
2022-11-27T18:34:34.666Z,15.70
2022-11-27T18:37:02.831Z,17.53
2022-11-27T18:39:31.691Z,15.97
2022-11-27T18:42:01.389Z,17.47
2022-11-27T18:44:29.496Z,17.23
2022-11-27T18:46:58.166Z,16.50
2022-11-27T18:49:26.479Z,15.37
2022-11-27T18:51:56.398Z,14.70
2022-11-27T18:54:25.337Z,15.83
2022-11-27T18:56:53.402Z,15.87
2022-11-27T18:59:23.184Z,15.97
2022-11-27T19:01:51.911Z,16.57
2022-11-27T19:04:20.121Z,17.03
2022-11-27T19:06:48.328Z,17.33
2022-11-27T19:09:16.596Z,17.43
2022-11-27T19:11:45.300Z,17.73
2022-11-27T19:14:13.388Z,18.00
2022-11-27T19:16:46.449Z,17.33
2022-11-27T19:19:52.778Z,17.67
2022-11-27T19:22:07.646Z,20.27
2022-11-27T19:24:35.750Z,18.13
2022-11-27T19:27:03.873Z,18.47
2022-11-27T19:29:32.314Z,17.50
2022-11-27T19:32:01.909Z,16.77
2022-11-27T19:34:30.198Z,17.47
2022-11-27T19:36:59.126Z,17.67
2022-11-27T19:39:28.625Z,17.00
2022-11-27T19:41:57.955Z,18.47
2022-11-27T19:44:26.582Z,15.37
2022-11-27T19:46:54.840Z,18.47
2022-11-27T19:49:26.798Z,16.83
2022-11-27T19:51:55.457Z,17.43
2022-11-27T19:54:23.525Z,17.43
2022-11-27T19:56:51.747Z,17.33
2022-11-27T19:59:25.503Z,17.60
2022-11-27T20:01:54.026Z,18.70
2022-11-27T20:04:23.964Z,17.77
2022-11-27T20:06:53.814Z,19.43
2022-11-27T20:09:21.938Z,18.93
2022-11-27T20:11:50.583Z,19.37
2022-11-27T20:14:19.832Z,19.17
2022-11-27T20:16:48.042Z,20.67
2022-11-27T20:19:16.535Z,19.50
2022-11-27T20:21:46.591Z,18.90
2022-11-27T20:24:14.741Z,19.00
2022-11-27T20:26:43.547Z,20.70
2022-11-27T20:29:12.298Z,19.53
2022-11-27T20:31:42.008Z,20.57
2022-11-27T20:34:15.745Z,19.17
2022-11-27T20:36:45.232Z,19.17
2022-11-27T20:39:19.268Z,19.37
2022-11-27T20:41:51.022Z,20.03
2022-11-27T20:44:19.261Z,19.13
2022-11-27T20:46:47.786Z,18.70
2022-11-27T20:49:16.404Z,19.13
2022-11-27T20:51:48.913Z,17.80
2022-11-27T20:54:17.528Z,19.57
2022-11-27T20:56:46.627Z,21.10
2022-11-27T20:59:15.799Z,21.87
2022-11-27T21:01:44.252Z,21.90
2022-11-27T21:04:20.459Z,21.77
2022-11-27T21:06:50.644Z,22.17
2022-11-27T21:09:20.807Z,21.10
2022-11-27T21:11:48.954Z,19.90
2022-11-27T21:14:18.163Z,18.33
2022-11-27T21:16:49.255Z,18.80
2022-11-27T21:19:19.871Z,17.83
2022-11-27T21:21:49.894Z,18.53
2022-11-27T21:24:19.002Z,20.10
2022-11-27T21:26:48.210Z,19.87
2022-11-27T21:29:17.253Z,19.33
2022-11-27T21:31:47.415Z,19.97
2022-11-27T21:34:16.727Z,17.20
2022-11-27T21:36:45.338Z,16.53
2022-11-27T21:39:20.698Z,18.63
2022-11-27T21:41:50.249Z,16.77
2022-11-27T21:44:18.926Z,18.00
2022-11-27T21:46:48.182Z,17.43
2022-11-27T21:49:18.275Z,16.73
2022-11-27T21:51:46.791Z,15.40
2022-11-27T21:54:17.701Z,16.00
2022-11-27T21:56:46.082Z,15.07
2022-11-27T21:59:15.446Z,15.87
2022-11-27T22:01:48.964Z,15.43
2022-11-27T22:04:17.336Z,14.50
2022-11-27T22:06:46.296Z,15.90
2022-11-27T22:09:16.449Z,18.47
2022-11-27T22:11:56.728Z,18.17
2022-11-27T22:14:25.078Z,19.00
2022-11-27T22:16:53.807Z,19.30
2022-11-27T22:19:21.972Z,22.63
2022-11-27T22:21:52.519Z,20.60
2022-11-27T22:24:22.598Z,22.87
2022-11-27T22:26:50.684Z,19.83
2022-11-27T22:29:19.943Z,18.40
2022-11-27T22:31:48.580Z,18.63
2022-11-27T22:34:17.479Z,18.63
2022-11-27T22:36:47.680Z,18.80
2022-11-27T22:39:15.979Z,16.53
2022-11-27T22:41:45.456Z,18.23
2022-11-27T22:44:16.644Z,18.30
2022-11-27T22:46:45.741Z,16.80
2022-11-27T22:49:15.718Z,15.17
2022-11-27T22:51:44.376Z,15.07
2022-11-27T22:54:14.978Z,14.83
2022-11-27T22:56:43.079Z,14.90
2022-11-27T23:02:02.414Z,15.40
2022-11-27T23:04:31.051Z,14.00
2022-11-27T23:06:59.667Z,14.40
2022-11-27T23:09:28.420Z,13.43
2022-11-27T23:11:58.047Z,13.73
2022-11-27T23:14:28.139Z,14.83
2022-11-27T23:16:56.307Z,13.73
2022-11-27T23:19:24.695Z,16.73
2022-11-27T23:21:52.797Z,21.17
2022-11-27T23:24:20.995Z,21.00
2022-11-27T23:26:49.576Z,19.47
2022-11-27T23:29:17.680Z,16.83
2022-11-27T23:31:47.210Z,18.13
2022-11-27T23:34:16.657Z,18.40
2022-11-27T23:36:45.178Z,17.13
2022-11-27T23:39:14.418Z,15.57
2022-11-27T23:41:43.799Z,14.13
2022-11-27T23:44:12.088Z,13.37
2022-11-27T23:46:40.608Z,13.43
2022-11-27T23:49:10.408Z,14.57
2022-11-27T23:51:38.641Z,13.23
2022-11-27T23:54:09.888Z,12.87
2022-11-27T23:56:40.123Z,13.17
2022-11-27T23:59:08.455Z,12.47
